Aérodrome :
LOGIN :

S'inscrire | Disclaimer

   EN    FR    IT 

 










Légende :    VFR   VFR Marginal   IFR   IFR Intensif   IFR Très Intensif
Visi : 
Plafond : 
>= 8 km
>= 3000ft
5 à 8 km
1000 à 3000 ft
1500m à 5 km
500 à 1000 ft
800 à 1500m
200 à 500 ft
< 800m
< 200 ft
Symboles :   Orages  Brouillard  Fortes neiges  Fortes précipitations  Vent > 20 kt
SIGMETs :   Divers  Orages  Givrage  Turbulence  Onde Orograph.  Cendres Volcan.






- Altitude de l'aérodrome : 270 ft
- Code IATA : OXF


EGTK - Oxford (Kidlington)

DERNIER METAR :
  • 161150Z 29008KT 9999 VCSH SCT019 BKN026 18/14 Q1009

METARs EXPIRÉS :
  • 161120Z 29006KT 250V340 9999 SCT014 BKN022 18/15 Q1009
  • 161050Z 28008KT 9999 VCSH FEW012 SCT015 BKN020 17/15 Q1008
  • 161020Z 25007KT 9999 SCT011 BKN016 16/14 Q1008
  • 160950Z 26006KT 9999 SCT012 BKN015 16/14 Q1008
  • 160920Z 24006KT 9999 FEW012 SCT016 BKN020 16/14 Q1007
  • 160850Z 25006KT 210V290 9999 FEW010 SCT014 BKN027 17/15 Q1007
  • 160820Z 26007KT 9999 SCT008 BKN010 15/14 Q1007
  • 160750Z 25009KT 210V270 9999 BKN007 15/14 Q1007
  • 160720Z 23006KT 9999 BKN006 BKN010 15/14 Q1006

TAF TAF EGTK
Valide du 16 à 12h jusqu'au 16 à 21h UTC


161100Z 1612/1621 29008KT 9999 SCT020
PROB30
TEMPO 1612/1619 6000 SHRA



MET'MAP, la Météo Aéronautique d'un coup d'oeil ! - Copyright ORBIFLY Décembre 2007 - Disclaimer

ORBIFLY MET'MAP TEAM :

Programmation & Développement : Alexandra Zaïnal
Sur une idée originale de : Baudouin d'Aumeries
Soutien technique & logistique : Manuel Goepfert
Assistance : Marc-Olivier Méhu




SOURCES & CREDITS :

   NOAA